Time;durP1;ratioP1;P1;durP2;ratioP2;P2;SDS_P1;SDS_P2;PMS_P1;PMS_P2;Temp;Humidity;BMP_temperature;BMP_pressure;BME280_temperature;BME280_humidity;BME280_pressure;Samples;Min_cycle;Max_cycle;Signal;HPM_P1;HPM_P2
2023/12/23 00:00:20;;;;;;;1.60;1.10;;;10.70;1.00;;;;;;5007746;28;20283;-75
2023/12/23 00:02:46;;;;;;;2.33;1.37;;;10.70;1.00;;;;;;5032053;28;20197;-78
2023/12/23 00:05:11;;;;;;;3.97;1.40;;;10.70;1.00;;;;;;5013571;28;20727;-75
2023/12/23 00:07:37;;;;;;;3.03;1.13;;;10.70;1.00;;;;;;5031893;28;20222;-78
2023/12/23 00:10:03;;;;;;;5.67;1.37;;;10.60;1.00;;;;;;5031281;28;20260;-74
2023/12/23 00:12:29;;;;;;;2.07;1.03;;;10.60;1.00;;;;;;5030711;28;20197;-76
2023/12/23 00:14:55;;;;;;;2.33;1.30;;;10.50;1.00;;;;;;5028700;28;20413;-76
2023/12/23 00:17:20;;;;;;;2.30;1.30;;;10.50;1.00;;;;;;5018416;28;20448;-75
2023/12/23 00:19:46;;;;;;;5.77;1.30;;;10.40;1.00;;;;;;5031165;28;20528;-76
2023/12/23 00:22:11;;;;;;;2.07;1.33;;;10.50;1.00;;;;;;5029594;28;20185;-76
2023/12/23 00:24:37;;;;;;;1.93;1.47;;;10.60;1.00;;;;;;5031275;28;20193;-76
2023/12/23 00:27:03;;;;;;;2.70;1.13;;;10.50;1.00;;;;;;5031504;28;20201;-76
2023/12/23 00:29:28;;;;;;;2.60;1.20;;;10.60;1.00;;;;;;5023109;28;20189;-76
2023/12/23 00:31:54;;;;;;;2.10;1.10;;;10.60;1.00;;;;;;5031602;28;20193;-76
2023/12/23 00:34:19;;;;;;;5.37;1.40;;;10.70;1.00;;;;;;5031099;28;20200;-78
2023/12/23 00:36:45;;;;;;;1.50;1.00;;;10.80;1.00;;;;;;5031345;28;20205;-76
2023/12/23 00:39:11;;;;;;;3.27;1.40;;;10.70;1.00;;;;;;5030609;28;20572;-76
2023/12/23 00:41:37;;;;;;;2.50;1.20;;;10.60;1.00;;;;;;5031352;28;20478;-76
2023/12/23 00:44:03;;;;;;;2.40;1.40;;;10.70;1.00;;;;;;5031023;28;20914;-76
2023/12/23 00:46:28;;;;;;;2.03;1.33;;;10.70;1.00;;;;;;5030846;28;20709;-75
2023/12/23 00:48:55;;;;;;;3.83;1.40;;;10.70;1.00;;;;;;5031193;28;20182;-77
2023/12/23 00:51:21;;;;;;;2.83;1.20;;;10.70;1.00;;;;;;5030462;28;20193;-76
2023/12/23 00:53:46;;;;;;;3.10;1.43;;;10.70;1.00;;;;;;5024778;28;20476;-78
2023/12/23 00:56:17;;;;;;;2.27;1.23;;;10.70;1.00;;;;;;5028319;28;20508;-76
2023/12/23 00:58:42;;;;;;;4.53;1.30;;;10.60;1.00;;;;;;5031045;28;20228;-77
2023/12/23 01:01:08;;;;;;;3.40;1.40;;;10.60;1.00;;;;;;5029398;28;20478;-75
2023/12/23 01:03:34;;;;;;;2.80;1.20;;;10.60;1.00;;;;;;5027890;28;20210;-76
2023/12/23 01:05:59;;;;;;;2.43;1.23;;;10.80;1.00;;;;;;5020435;28;20747;-76
2023/12/23 01:08:25;;;;;;;3.90;1.60;;;10.60;1.00;;;;;;5029188;28;20722;-77
2023/12/23 01:10:51;;;;;;;3.60;1.23;;;10.60;1.00;;;;;;5030665;28;20181;-76
2023/12/23 01:13:16;;;;;;;3.20;1.30;;;10.60;1.00;;;;;;5030146;28;20248;-76
2023/12/23 01:15:42;;;;;;;5.93;1.20;;;10.60;1.00;;;;;;5029739;28;20192;-76
2023/12/23 01:18:07;;;;;;;2.07;1.30;;;10.60;1.00;;;;;;5024272;28;20583;-76
2023/12/23 01:20:33;;;;;;;4.50;1.27;;;10.60;1.00;;;;;;5004880;28;20192;-76
2023/12/23 01:22:58;;;;;;;4.47;1.60;;;10.60;1.00;;;;;;5030654;28;20204;-76
2023/12/23 01:25:24;;;;;;;4.43;1.37;;;10.60;1.00;;;;;;5026456;28;20217;-76
2023/12/23 01:27:49;;;;;;;3.77;1.10;;;10.50;1.00;;;;;;5030689;28;20293;-77
2023/12/23 01:30:15;;;;;;;2.30;1.27;;;10.50;1.00;;;;;;5028659;28;20194;-76
2023/12/23 01:32:41;;;;;;;2.60;1.20;;;10.50;1.00;;;;;;5024223;28;20193;-76
2023/12/23 01:35:06;;;;;;;3.50;1.23;;;10.50;1.00;;;;;;5029885;28;20217;-77
2023/12/23 01:37:32;;;;;;;2.30;1.10;;;10.50;1.00;;;;;;5029805;28;20213;-77
2023/12/23 01:39:57;;;;;;;3.30;1.40;;;10.50;1.00;;;;;;5030237;28;20182;-76
2023/12/23 01:42:23;;;;;;;3.97;1.13;;;10.60;1.00;;;;;;5029826;28;20182;-76
2023/12/23 01:44:48;;;;;;;1.70;1.40;;;10.70;1.00;;;;;;5029855;28;20683;-77
2023/12/23 01:47:14;;;;;;;2.33;1.20;;;10.60;1.00;;;;;;5029848;28;20213;-76
2023/12/23 01:49:41;;;;;;;3.00;1.33;;;10.60;1.00;;;;;;5021438;28;20260;-76
2023/12/23 01:52:06;;;;;;;2.43;1.27;;;10.70;1.00;;;;;;5018874;28;20417;-76
2023/12/23 01:54:32;;;;;;;8.97;1.30;;;10.70;1.00;;;;;;5011677;28;20435;-76
2023/12/23 01:56:58;;;;;;;5.20;1.50;;;10.70;1.00;;;;;;5026612;28;20220;-73
2023/12/23 01:59:24;;;;;;;4.70;1.40;;;9.80;1.00;;;;;;5024153;28;20214;-76
2023/12/23 02:01:51;;;;;;;6.93;1.70;;;10.70;1.00;;;;;;5029260;28;20510;-76
2023/12/23 02:04:17;;;;;;;3.60;1.30;;;10.70;1.00;;;;;;5027734;28;20189;-76
2023/12/23 02:06:42;;;;;;;4.77;1.73;;;10.70;1.00;;;;;;5029668;28;20930;-76
2023/12/23 02:09:08;;;;;;;3.57;1.60;;;10.70;1.00;;;;;;5021127;28;20286;-78
2023/12/23 02:11:40;;;;;;;5.10;2.10;;;10.70;1.00;;;;;;5027459;28;20702;-76
2023/12/23 02:14:19;;;;;;;2.67;1.30;;;10.70;1.00;;;;;;5024664;28;20543;-76
2023/12/23 02:16:46;;;;;;;4.37;1.27;;;10.70;1.00;;;;;;5020091;28;20798;-78
2023/12/23 02:19:12;;;;;;;2.23;1.17;;;10.70;1.00;;;;;;5029102;28;20464;-76
2023/12/23 02:21:37;;;;;;;5.60;1.40;;;10.70;1.00;;;;;;5027961;28;20470;-77
2023/12/23 02:24:03;;;;;;;3.33;1.33;;;10.70;1.00;;;;;;5010694;28;20261;-76
2023/12/23 02:26:31;;;;;;;4.40;1.40;;;10.70;1.00;;;;;;5027684;28;20186;-76
2023/12/23 02:28:58;;;;;;;3.43;1.40;;;10.70;1.00;;;;;;5022891;28;20707;-76
2023/12/23 02:31:24;;;;;;;2.53;1.80;;;10.70;1.00;;;;;;5028997;28;20516;-75
2023/12/23 02:33:49;;;;;;;5.37;1.43;;;10.70;1.00;;;;;;5029299;28;20459;-74
2023/12/23 02:36:21;;;;;;;2.73;1.20;;;10.70;1.00;;;;;;5026858;28;20440;-76
2023/12/23 02:38:47;;;;;;;2.13;1.27;;;10.70;1.00;;;;;;5016349;28;20206;-75
2023/12/23 02:41:12;;;;;;;2.63;1.30;;;10.60;1.00;;;;;;5029140;28;20460;-75
2023/12/23 02:43:38;;;;;;;3.20;1.30;;;10.60;1.00;;;;;;5029041;28;20448;-77
2023/12/23 02:46:03;;;;;;;5.27;1.60;;;10.50;1.00;;;;;;5028088;28;20582;-76
2023/12/23 02:48:29;;;;;;;3.47;1.40;;;10.50;1.00;;;;;;5022172;28;20201;-77
2023/12/23 02:50:54;;;;;;;2.40;1.37;;;10.50;1.00;;;;;;5028423;28;20256;-75
2023/12/23 02:53:20;;;;;;;2.07;1.20;;;10.50;1.00;;;;;;5028098;28;20595;-76
2023/12/23 02:55:45;;;;;;;2.80;1.43;;;10.50;1.00;;;;;;5026196;28;20189;-76
2023/12/23 02:58:11;;;;;;;2.57;1.47;;;10.50;1.00;;;;;;5024158;28;20216;-75
2023/12/23 03:00:36;;;;;;;2.10;1.27;;;10.50;1.00;;;;;;5028365;28;20552;-74
2023/12/23 03:03:02;;;;;;;2.80;1.47;;;10.50;1.00;;;;;;5021632;28;20188;-77
2023/12/23 03:05:27;;;;;;;2.47;1.30;;;10.50;1.00;;;;;;5027615;28;20667;-75
2023/12/23 03:07:53;;;;;;;7.70;1.73;;;10.50;1.00;;;;;;5028757;28;20623;-76
2023/12/23 03:10:19;;;;;;;4.97;1.70;;;10.50;1.00;;;;;;5028057;28;20205;-75
2023/12/23 03:12:44;;;;;;;3.73;1.60;;;10.50;1.00;;;;;;5024865;28;20213;-77
2023/12/23 03:15:10;;;;;;;4.03;1.67;;;10.50;1.00;;;;;;5028096;28;20240;-75
2023/12/23 03:17:35;;;;;;;2.60;1.50;;;10.60;1.00;;;;;;5004830;28;20296;-75
2023/12/23 03:20:01;;;;;;;5.27;1.43;;;10.50;1.00;;;;;;5027949;28;20206;-76
2023/12/23 03:22:26;;;;;;;5.30;1.60;;;10.60;1.00;;;;;;5026828;28;20256;-76
2023/12/23 03:24:52;;;;;;;3.00;1.63;;;10.60;1.00;;;;;;5027903;28;20655;-75
2023/12/23 03:27:18;;;;;;;6.60;1.80;;;10.50;1.00;;;;;;5023683;28;20198;-77
2023/12/23 03:29:44;;;;;;;1.87;1.40;;;10.60;1.00;;;;;;5027648;28;20202;-76
2023/12/23 03:32:10;;;;;;;6.00;1.47;;;10.60;1.00;;;;;;5025343;28;20413;-76
2023/12/23 03:34:35;;;;;;;2.67;1.50;;;10.60;1.00;;;;;;5027615;28;20482;-77
2023/12/23 03:37:01;;;;;;;6.40;1.50;;;10.60;1.00;;;;;;5024342;28;20529;-74
2023/12/23 03:39:27;;;;;;;6.83;1.63;;;10.60;1.00;;;;;;5026793;28;20237;-76
2023/12/23 03:41:52;;;;;;;3.73;1.60;;;10.60;1.00;;;;;;5010704;28;20182;-74
2023/12/23 03:44:18;;;;;;;3.40;1.33;;;10.60;1.00;;;;;;5028328;28;20186;-75
2023/12/23 03:46:43;;;;;;;2.37;1.47;;;10.60;1.00;;;;;;5026517;28;20209;-75
2023/12/23 03:49:09;;;;;;;3.43;1.40;;;10.60;1.00;;;;;;5027909;28;20221;-75
2023/12/23 03:51:34;;;;;;;4.07;1.70;;;10.60;1.00;;;;;;5003772;28;20198;-77
2023/12/23 03:54:00;;;;;;;6.43;1.50;;;10.60;1.00;;;;;;5027895;28;20193;-78
2023/12/23 03:56:25;;;;;;;4.37;1.60;;;10.50;1.00;;;;;;5021303;28;20526;-74
2023/12/23 03:58:51;;;;;;;3.30;1.30;;;10.50;1.00;;;;;;5028235;28;20205;-77
2023/12/23 04:01:17;;;;;;;4.03;1.70;;;10.50;1.00;;;;;;5027991;28;20268;-77
2023/12/23 04:03:43;;;;;;;4.73;1.30;;;10.50;1.00;;;;;;5027951;28;20691;-75
2023/12/23 04:06:11;;;;;;;3.03;1.60;;;10.50;1.00;;;;;;5008795;28;20507;-78
2023/12/23 04:08:39;;;;;;;4.87;1.57;;;10.50;1.00;;;;;;5019234;28;20208;-77
2023/12/23 04:11:05;;;;;;;3.97;1.20;;;10.50;1.00;;;;;;5027788;28;20440;-76
2023/12/23 04:13:30;;;;;;;5.63;1.50;;;10.50;1.00;;;;;;5028358;28;20429;-76
2023/12/23 04:15:56;;;;;;;5.23;1.57;;;10.50;1.00;;;;;;5022544;28;20179;-76
2023/12/23 04:18:21;;;;;;;3.70;1.40;;;10.50;1.00;;;;;;5023698;28;20267;-77
2023/12/23 04:20:47;;;;;;;9.97;2.47;;;10.50;1.00;;;;;;5027770;28;20647;-76
2023/12/23 04:23:12;;;;;;;2.10;1.10;;;10.50;1.00;;;;;;5026583;28;20213;-75
2023/12/23 04:25:38;;;;;;;4.33;1.20;;;10.50;1.00;;;;;;5021245;28;20182;-76
2023/12/23 04:28:04;;;;;;;3.47;1.33;;;10.60;1.00;;;;;;5027930;28;20280;-75
2023/12/23 04:30:29;;;;;;;3.47;1.30;;;10.50;1.00;;;;;;5024453;28;20193;-76
2023/12/23 04:32:55;;;;;;;8.60;1.53;;;10.50;1.00;;;;;;5009666;28;20444;-76
2023/12/23 04:35:21;;;;;;;4.93;1.70;;;10.50;1.00;;;;;;5028109;28;20198;-78
2023/12/23 04:37:47;;;;;;;3.10;1.20;;;10.50;1.00;;;;;;5030733;28;20210;-76
2023/12/23 04:40:13;;;;;;;3.20;1.40;;;10.50;1.00;;;;;;5029619;28;20523;-76
2023/12/23 04:42:38;;;;;;;2.90;1.10;;;10.50;1.00;;;;;;5031358;28;20668;-77
2023/12/23 04:45:04;;;;;;;2.30;1.37;;;10.50;1.00;;;;;;5026337;28;20420;-76
2023/12/23 04:47:30;;;;;;;4.57;1.37;;;10.80;1.00;;;;;;5030036;28;20684;-75
2023/12/23 04:49:55;;;;;;;2.70;1.40;;;10.50;1.00;;;;;;5012094;28;20551;-76
2023/12/23 04:52:21;;;;;;;1.70;1.30;;;10.50;1.00;;;;;;5030737;28;20261;-78
2023/12/23 04:54:46;;;;;;;3.33;1.50;;;10.50;1.00;;;;;;5030604;28;20572;-77
2023/12/23 04:57:12;;;;;;;2.70;1.33;;;10.50;1.00;;;;;;5030774;28;20263;-76
2023/12/23 04:59:37;;;;;;;7.20;1.43;;;10.50;1.00;;;;;;5028291;28;20205;-77
2023/12/23 05:02:03;;;;;;;3.47;1.67;;;10.50;1.00;;;;;;5029455;28;20612;-76
2023/12/23 05:04:29;;;;;;;4.10;1.40;;;10.50;1.00;;;;;;5028237;28;20805;-74
2023/12/23 05:06:59;;;;;;;5.27;1.60;;;10.50;1.00;;;;;;5030752;28;20444;-76
2023/12/23 05:09:24;;;;;;;6.50;1.90;;;10.50;1.00;;;;;;5031187;28;20182;-76
2023/12/23 05:11:49;;;;;;;4.10;1.40;;;10.50;1.00;;;;;;5030217;28;20482;-78
2023/12/23 05:14:15;;;;;;;7.40;2.70;;;10.50;1.00;;;;;;5030734;28;20189;-76
2023/12/23 05:16:40;;;;;;;4.93;2.67;;;10.40;1.00;;;;;;5029607;28;20643;-77
2023/12/23 05:19:06;;;;;;;8.60;2.37;;;10.50;1.00;;;;;;5026396;28;20229;-78
2023/12/23 05:21:31;;;;;;;4.13;1.77;;;10.50;1.00;;;;;;5026794;28;20185;-75
2023/12/23 05:23:57;;;;;;;7.63;1.80;;;10.50;1.00;;;;;;5030571;28;20244;-76
2023/12/23 05:26:22;;;;;;;3.43;1.67;;;10.40;1.00;;;;;;5028797;28;20265;-76
2023/12/23 05:28:48;;;;;;;3.87;1.43;;;10.50;1.00;;;;;;5030243;28;20210;-76
2023/12/23 05:31:14;;;;;;;3.90;1.87;;;10.50;1.00;;;;;;5029981;28;20749;-76
2023/12/23 05:33:39;;;;;;;3.10;1.60;;;10.50;1.00;;;;;;5030524;28;20216;-76
2023/12/23 05:36:05;;;;;;;6.73;1.50;;;10.50;1.00;;;;;;5027284;28;20181;-78
2023/12/23 05:38:30;;;;;;;1.53;1.13;;;10.50;1.00;;;;;;5030342;28;20228;-76
2023/12/23 05:40:56;;;;;;;4.43;1.57;;;10.50;1.00;;;;;;5012057;28;20604;-76
2023/12/23 05:43:22;;;;;;;3.20;1.47;;;10.50;1.00;;;;;;5030693;28;20197;-77
2023/12/23 05:45:47;;;;;;;5.43;1.77;;;10.40;1.00;;;;;;5028667;28;20526;-76
2023/12/23 05:48:14;;;;;;;2.23;1.53;;;10.40;1.00;;;;;;5029469;28;20595;-76
2023/12/23 05:50:39;;;;;;;2.57;1.63;;;10.40;1.00;;;;;;5028434;28;20644;-77
2023/12/23 05:53:05;;;;;;;3.43;1.50;;;10.40;1.00;;;;;;5028782;28;20444;-76
2023/12/23 05:55:31;;;;;;;5.20;2.50;;;10.20;1.00;;;;;;5026116;28;20202;-76
2023/12/23 05:57:56;;;;;;;4.20;1.40;;;10.40;1.00;;;;;;5029565;28;20603;-76
2023/12/23 06:00:22;;;;;;;4.07;1.37;;;10.40;1.00;;;;;;5029528;28;20181;-77
2023/12/23 06:02:47;;;;;;;4.80;1.80;;;10.40;1.00;;;;;;5029992;28;20269;-75
2023/12/23 06:05:13;;;;;;;2.03;1.40;;;10.40;1.00;;;;;;5029661;28;20572;-76
2023/12/23 06:07:38;;;;;;;3.43;1.50;;;10.40;1.00;;;;;;5029600;28;20656;-76
2023/12/23 06:10:05;;;;;;;7.37;1.47;;;10.40;1.00;;;;;;5011658;28;20571;-77
2023/12/23 06:12:31;;;;;;;5.50;1.70;;;10.50;1.00;;;;;;5034261;28;20281;-77
2023/12/23 06:14:57;;;;;;;3.73;1.43;;;10.40;1.00;;;;;;5026629;28;20554;-76
2023/12/23 06:17:23;;;;;;;3.00;1.30;;;10.50;1.00;;;;;;5024417;28;20201;-77
2023/12/23 06:19:49;;;;;;;3.70;1.10;;;10.50;1.00;;;;;;5008508;28;20939;-77
2023/12/23 06:22:14;;;;;;;1.60;1.17;;;10.50;1.00;;;;;;5029124;28;20435;-75
2023/12/23 06:24:40;;;;;;;3.00;1.60;;;10.40;1.00;;;;;;5029053;28;20454;-75
2023/12/23 06:27:05;;;;;;;7.10;1.60;;;10.50;1.00;;;;;;5028899;28;20675;-76
2023/12/23 06:29:31;;;;;;;6.40;2.03;;;10.40;1.00;;;;;;5029846;28;20189;-77
2023/12/23 06:32:00;;;;;;;4.20;1.60;;;10.50;1.00;;;;;;5010962;28;20194;-77
2023/12/23 06:34:25;;;;;;;4.07;1.60;;;10.50;1.00;;;;;;5029148;28;20196;-77
2023/12/23 06:36:51;;;;;;;2.53;1.37;;;10.50;1.00;;;;;;5026641;28;20445;-76
2023/12/23 06:39:16;;;;;;;4.83;1.70;;;10.50;1.00;;;;;;5029207;28;20201;-75
2023/12/23 06:41:42;;;;;;;2.80;1.53;;;10.40;1.00;;;;;;5028784;28;20185;-76
2023/12/23 06:44:07;;;;;;;4.80;1.77;;;10.40;1.00;;;;;;5011403;28;20513;-76
2023/12/23 06:46:33;;;;;;;6.30;1.70;;;10.40;1.00;;;;;;5028349;28;20213;-75
2023/12/23 06:48:58;;;;;;;3.20;1.70;;;10.40;1.00;;;;;;5023473;28;20212;-75
2023/12/23 06:51:24;;;;;;;4.40;1.27;;;10.40;1.00;;;;;;5026119;28;20747;-75
2023/12/23 06:53:50;;;;;;;2.43;1.20;;;10.40;1.00;;;;;;5026811;28;20663;-76
2023/12/23 06:56:15;;;;;;;6.20;1.83;;;10.40;1.00;;;;;;5024797;28;20260;-75
2023/12/23 06:58:42;;;;;;;4.47;1.70;;;10.40;1.00;;;;;;5027526;28;20217;-76
2023/12/23 07:01:07;;;;;;;3.03;1.50;;;10.40;1.00;;;;;;5028562;28;20208;-76
2023/12/23 07:03:33;;;;;;;3.60;1.50;;;10.40;1.00;;;;;;5027866;28;20429;-75
2023/12/23 07:05:58;;;;;;;6.50;1.80;;;10.40;1.00;;;;;;5025771;28;20544;-77
2023/12/23 07:08:24;;;;;;;4.17;1.40;;;10.30;1.00;;;;;;5026595;28;20217;-76
2023/12/23 07:10:50;;;;;;;4.57;1.50;;;10.30;1.00;;;;;;5027680;28;20196;-77
2023/12/23 07:13:15;;;;;;;4.23;2.10;;;10.30;1.00;;;;;;5028720;28;20204;-78
2023/12/23 07:15:41;;;;;;;2.47;1.57;;;10.30;1.00;;;;;;5008370;28;20749;-76
2023/12/23 07:18:07;;;;;;;2.90;1.70;;;10.30;1.00;;;;;;5028960;28;20229;-75
2023/12/23 07:20:33;;;;;;;4.63;1.70;;;10.30;1.00;;;;;;5027037;28;20197;-76
2023/12/23 07:22:58;;;;;;;5.97;1.63;;;9.60;1.00;;;;;;5028003;28;20455;-75
2023/12/23 07:25:24;;;;;;;2.03;1.60;;;10.30;1.00;;;;;;5026309;28;20193;-77
2023/12/23 07:27:49;;;;;;;10.70;1.77;;;10.30;1.00;;;;;;5010352;28;20205;-76
2023/12/23 07:30:15;;;;;;;7.03;1.47;;;10.30;1.00;;;;;;5025795;28;20177;-76
2023/12/23 07:32:41;;;;;;;1.80;1.60;;;10.60;1.00;;;;;;5028404;28;20656;-75
2023/12/23 07:35:07;;;;;;;3.67;1.50;;;10.30;1.00;;;;;;5021375;28;20192;-75
2023/12/23 07:37:33;;;;;;;10.87;2.20;;;10.30;1.00;;;;;;5027458;28;20444;-76
2023/12/23 07:39:58;;;;;;;4.47;1.50;;;10.30;1.00;;;;;;5027798;28;20919;-75
2023/12/23 07:42:24;;;;;;;2.20;1.50;;;10.30;1.00;;;;;;5021173;28;20178;-76
2023/12/23 07:44:49;;;;;;;7.77;1.93;;;10.30;1.00;;;;;;5027205;28;20261;-75
2023/12/23 07:47:15;;;;;;;2.70;1.60;;;10.30;1.00;;;;;;5027503;28;20718;-78
2023/12/23 07:49:40;;;;;;;4.13;2.07;;;10.30;1.00;;;;;;5023429;28;20214;-75
2023/12/23 07:52:07;;;;;;;10.60;1.30;;;10.30;1.00;;;;;;5027547;28;20189;-76
2023/12/23 07:54:33;;;;;;;2.30;1.20;;;10.20;1.00;;;;;;5025870;28;20247;-74
2023/12/23 07:56:58;;;;;;;2.83;1.43;;;10.40;1.00;;;;;;5028000;28;20464;-76
2023/12/23 07:59:24;;;;;;;6.10;3.33;;;10.20;1.00;;;;;;5027138;28;20205;-76
2023/12/23 08:01:49;;;;;;;4.90;2.80;;;10.20;1.00;;;;;;5023412;28;20664;-76
2023/12/23 08:04:15;;;;;;;4.13;1.63;;;10.20;1.00;;;;;;5027990;28;20532;-76
2023/12/23 08:06:41;;;;;;;2.53;1.30;;;10.10;1.00;;;;;;5027745;28;20197;-76
2023/12/23 08:09:07;;;;;;;2.57;1.50;;;10.10;1.00;;;;;;5008146;28;20424;-76
2023/12/23 08:11:34;;;;;;;3.13;2.00;;;10.10;1.00;;;;;;5007085;28;20189;-76
2023/12/23 08:14:00;;;;;;;2.60;1.30;;;10.10;1.00;;;;;;5030145;28;20178;-77
2023/12/23 08:16:26;;;;;;;1.77;1.20;;;10.10;1.00;;;;;;5031228;28;20446;-77
2023/12/23 08:18:51;;;;;;;1.67;1.00;;;10.00;1.00;;;;;;5029158;28;20476;-75
2023/12/23 08:21:17;;;;;;;2.90;1.40;;;10.00;1.00;;;;;;5027738;28;20592;-77
2023/12/23 08:23:42;;;;;;;1.20;0.90;;;10.10;1.00;;;;;;5031497;28;20181;-77
2023/12/23 08:26:08;;;;;;;1.63;1.30;;;10.10;1.00;;;;;;5031353;28;20289;-76
2023/12/23 08:28:34;;;;;;;1.90;1.17;;;10.10;1.00;;;;;;5029424;28;20714;-76
2023/12/23 08:31:02;;;;;;;2.30;0.97;;;10.10;1.00;;;;;;5031300;28;20204;-76
2023/12/23 08:33:27;;;;;;;1.30;0.87;;;10.10;1.00;;;;;;5013420;28;20189;-76
2023/12/23 08:35:53;;;;;;;1.20;0.90;;;10.10;1.00;;;;;;5027375;28;20424;-77
2023/12/23 08:38:19;;;;;;;1.33;0.90;;;10.10;1.00;;;;;;5031765;28;20616;-76
2023/12/23 08:40:44;;;;;;;1.73;1.07;;;10.10;1.00;;;;;;5031577;28;20181;-76
2023/12/23 08:43:10;;;;;;;1.10;0.90;;;10.10;1.00;;;;;;5029152;28;20257;-76
2023/12/23 08:45:36;;;;;;;1.57;0.90;;;10.10;1.00;;;;;;5029976;28;20529;-76
2023/12/23 08:48:01;;;;;;;1.60;1.20;;;10.10;1.00;;;;;;5030013;28;20463;-77
2023/12/23 08:50:27;;;;;;;1.87;1.20;;;10.10;1.00;;;;;;5030856;28;20188;-76
2023/12/23 08:52:52;;;;;;;1.80;1.50;;;10.00;1.00;;;;;;5031320;28;20212;-76
2023/12/23 08:55:18;;;;;;;2.50;1.20;;;10.00;1.00;;;;;;5030850;28;20273;-77
2023/12/23 08:57:44;;;;;;;2.53;1.00;;;10.00;1.00;;;;;;5024194;28;20351;-76
2023/12/23 09:00:09;;;;;;;2.70;1.10;;;9.90;1.00;;;;;;5030762;28;20174;-76
2023/12/23 09:02:35;;;;;;;1.77;0.90;;;10.00;1.00;;;;;;5026675;28;20194;-76
2023/12/23 09:05:01;;;;;;;1.20;1.00;;;9.90;1.00;;;;;;5028386;28;20189;-77
2023/12/23 09:07:26;;;;;;;2.27;1.70;;;9.90;1.00;;;;;;5031090;28;20197;-77
2023/12/23 09:09:52;;;;;;;1.73;1.07;;;9.90;1.00;;;;;;5030037;28;20182;-74
2023/12/23 09:12:19;;;;;;;2.80;1.27;;;9.30;1.00;;;;;;5027167;28;20202;-76
2023/12/23 09:14:45;;;;;;;1.00;0.80;;;9.90;1.00;;;;;;5030648;28;20269;-76
2023/12/23 09:17:11;;;;;;;2.03;1.10;;;9.90;1.00;;;;;;5030390;28;20852;-77
2023/12/23 09:19:36;;;;;;;2.50;1.50;;;9.90;1.00;;;;;;5030266;28;20464;-77
2023/12/23 09:22:02;;;;;;;4.07;2.67;;;10.00;1.00;;;;;;5030514;28;20563;-76
2023/12/23 09:24:28;;;;;;;1.47;1.03;;;9.90;1.00;;;;;;5030850;28;20185;-76
2023/12/23 09:26:54;;;;;;;1.50;1.30;;;10.00;1.00;;;;;;5029800;28;20190;-74
2023/12/23 09:29:19;;;;;;;1.30;0.83;;;9.90;1.00;;;;;;5030786;28;20434;-79
2023/12/23 09:31:45;;;;;;;1.30;0.90;;;10.00;1.00;;;;;;5030406;28;20194;-77
2023/12/23 09:34:10;;;;;;;1.47;0.97;;;10.00;1.00;;;;;;5030487;28;20193;-76
2023/12/23 09:36:36;;;;;;;1.60;0.90;;;10.00;1.00;;;;;;5024041;28;20272;-78
2023/12/23 09:39:02;;;;;;;1.20;1.00;;;10.00;1.00;;;;;;5027223;28;20628;-75
2023/12/23 09:41:28;;;;;;;1.20;1.00;;;10.20;1.00;;;;;;5028667;28;20205;-76
2023/12/23 09:43:53;;;;;;;1.37;0.80;;;10.10;1.00;;;;;;5011842;28;20409;-76
2023/12/23 09:46:19;;;;;;;1.10;0.80;;;10.20;1.00;;;;;;5028916;28;20173;-76
2023/12/23 09:48:45;;;;;;;1.40;1.00;;;10.00;1.00;;;;;;5030167;28;20190;-76
2023/12/23 09:51:12;;;;;;;1.00;0.80;;;10.20;1.00;;;;;;5012048;28;20444;-76
2023/12/23 09:53:37;;;;;;;2.10;0.90;;;10.20;1.00;;;;;;5012443;28;20178;-76
2023/12/23 09:56:07;;;;;;;1.00;0.80;;;10.10;1.00;;;;;;5011696;28;20420;-76
2023/12/23 09:58:34;;;;;;;2.13;1.00;;;10.10;1.00;;;;;;5012022;28;20379;-76
2023/12/23 10:01:00;;;;;;;1.10;0.73;;;10.00;1.00;;;;;;5011796;28;20523;-76
2023/12/23 10:03:25;;;;;;;1.63;1.00;;;10.00;1.00;;;;;;5012282;28;20524;-76
2023/12/23 10:06:00;;;;;;;1.30;0.80;;;10.10;1.00;;;;;;5009902;28;20186;-78
2023/12/23 10:08:26;;;;;;;1.20;0.90;;;10.20;1.00;;;;;;5004197;28;20262;-77
2023/12/23 10:10:52;;;;;;;1.10;0.83;;;10.10;1.00;;;;;;5009652;28;20946;-78
2023/12/23 10:13:17;;;;;;;1.57;0.80;;;10.20;1.00;;;;;;5012043;28;20189;-79
2023/12/23 10:15:44;;;;;;;2.23;0.80;;;10.20;1.00;;;;;;5007474;28;20806;-79
2023/12/23 10:18:13;;;;;;;4.40;1.20;;;10.20;1.00;;;;;;5009582;28;20221;-80
2023/12/23 10:20:38;;;;;;;1.10;0.90;;;10.20;1.00;;;;;;5011792;28;20503;-79
2023/12/23 10:23:04;;;;;;;1.20;1.00;;;10.10;1.00;;;;;;5011933;28;20579;-78
2023/12/23 10:25:30;;;;;;;1.20;1.00;;;10.10;1.00;;;;;;5008676;28;20190;-77
2023/12/23 10:28:03;;;;;;;2.40;1.00;;;10.00;1.00;;;;;;5011231;28;20205;-77
2023/12/23 10:30:33;;;;;;;1.10;0.90;;;10.00;1.00;;;;;;5004240;28;20539;-77
2023/12/23 10:33:11;;;;;;;1.63;0.90;;;9.90;1.00;;;;;;5011511;28;20992;-79
2023/12/23 10:35:50;;;;;;;1.70;0.83;;;9.80;1.00;;;;;;5021166;28;20467;-79
2023/12/23 10:38:18;;;;;;;1.10;1.00;;;9.80;1.00;;;;;;5029016;28;21066;-77
2023/12/23 10:41:13;;;;;;;1.20;0.90;;;9.80;1.00;;;;;;5029131;28;20428;-79
2023/12/23 10:43:39;;;;;;;1.47;0.97;;;9.80;1.00;;;;;;5022905;28;20514;-78
2023/12/23 10:46:07;;;;;;;1.00;0.80;;;9.80;1.00;;;;;;5028283;28;20778;-78
2023/12/23 10:48:33;;;;;;;1.40;1.00;;;9.80;1.00;;;;;;5029170;28;20450;-79
2023/12/23 10:51:01;;;;;;;1.37;1.03;;;9.80;1.00;;;;;;5028840;28;20486;-78
2023/12/23 10:53:28;;;;;;;1.03;0.83;;;9.70;1.00;;;;;;5021454;28;20444;-79
2023/12/23 10:55:54;;;;;;;1.10;0.90;;;9.80;1.00;;;;;;5028809;28;20424;-78
2023/12/23 10:58:21;;;;;;;1.10;1.00;;;9.80;1.00;;;;;;5028227;28;20467;-80
2023/12/23 11:00:47;;;;;;;1.40;1.00;;;9.80;1.00;;;;;;5010959;28;20185;-78
2023/12/23 11:03:13;;;;;;;1.47;1.10;;;9.80;1.00;;;;;;5028419;28;20810;-78
2023/12/23 11:05:41;;;;;;;6.50;1.00;;;9.80;1.00;;;;;;5028850;28;20428;-79
2023/12/23 11:08:12;;;;;;;1.20;0.90;;;9.80;1.00;;;;;;5028439;28;20475;-79
2023/12/23 11:10:39;;;;;;;1.40;0.90;;;9.80;1.00;;;;;;5025470;28;20432;-78
2023/12/23 11:13:07;;;;;;;1.87;0.80;;;9.80;1.00;;;;;;5025381;28;20532;-77
2023/12/23 11:15:32;;;;;;;1.70;1.03;;;9.80;1.00;;;;;;5028552;28;20486;-81
2023/12/23 11:17:58;;;;;;;1.37;0.80;;;10.10;1.00;;;;;;5031274;28;20814;-76
2023/12/23 11:20:33;;;;;;;1.10;0.80;;;10.30;1.00;;;;;;5028667;28;20204;-77
2023/12/23 11:23:26;;;;;;;1.30;0.90;;;10.20;1.00;;;;;;5029185;28;20304;-78
2023/12/23 11:25:53;;;;;;;1.00;0.80;;;10.00;1.00;;;;;;5023367;28;20504;-78
2023/12/23 11:28:19;;;;;;;2.70;0.70;;;10.00;1.00;;;;;;5010489;28;21039;-76
2023/12/23 11:30:59;;;;;;;1.27;0.90;;;9.90;1.00;;;;;;5028637;28;20969;-78
2023/12/23 11:33:27;;;;;;;2.70;0.87;;;9.90;1.00;;;;;;5028806;28;20923;-77
2023/12/23 11:35:55;;;;;;;1.03;0.80;;;9.80;1.00;;;;;;5025942;28;20437;-78
2023/12/23 11:38:21;;;;;;;1.10;0.83;;;9.80;1.00;;;;;;5027454;28;20472;-80
2023/12/23 11:40:48;;;;;;;1.53;1.03;;;9.80;1.00;;;;;;5028046;28;20497;-78
2023/12/23 11:43:15;;;;;;;1.00;0.83;;;9.90;1.00;;;;;;5027671;28;20193;-78
2023/12/23 11:45:43;;;;;;;2.40;1.10;;;10.00;1.00;;;;;;5026639;28;20424;-79
2023/12/23 11:48:09;;;;;;;1.30;0.87;;;10.10;1.00;;;;;;5030727;28;20468;-77
2023/12/23 11:50:35;;;;;;;1.10;0.80;;;10.20;1.00;;;;;;5031329;28;20428;-78
2023/12/23 11:53:00;;;;;;;1.50;1.00;;;10.30;1.00;;;;;;5014336;28;20484;-79
2023/12/23 11:55:26;;;;;;;1.20;0.83;;;10.30;1.00;;;;;;5030319;28;20201;-78
2023/12/23 11:57:52;;;;;;;1.57;0.80;;;10.20;1.00;;;;;;5032112;28;20223;-78
2023/12/23 12:00:18;;;;;;;2.40;1.20;;;10.10;1.00;;;;;;5028511;28;20193;-78
2023/12/23 12:02:44;;;;;;;3.37;1.40;;;10.00;1.00;;;;;;5010630;28;20682;-79
2023/12/23 12:05:10;;;;;;;2.20;1.20;;;10.00;1.00;;;;;;5026962;28;20463;-79
2023/12/23 12:07:37;;;;;;;4.40;1.10;;;10.10;1.00;;;;;;5032538;28;20472;-79
2023/12/23 12:10:03;;;;;;;1.87;1.00;;;10.20;1.00;;;;;;5031927;28;20689;-78
2023/12/23 12:12:28;;;;;;;1.67;0.90;;;10.20;1.00;;;;;;5031151;28;20474;-78
2023/12/23 12:14:54;;;;;;;1.63;1.10;;;10.20;1.00;;;;;;5031196;28;20691;-78
2023/12/23 12:17:19;;;;;;;2.53;1.00;;;10.20;1.00;;;;;;5032054;28;20671;-80
2023/12/23 12:19:45;;;;;;;2.53;1.10;;;10.30;1.00;;;;;;5029135;28;20621;-78
2023/12/23 12:22:10;;;;;;;1.20;1.00;;;10.30;1.00;;;;;;5028077;28;20190;-78
2023/12/23 12:24:37;;;;;;;1.57;1.00;;;10.30;1.00;;;;;;5029562;28;20189;-77
2023/12/23 12:27:03;;;;;;;1.37;0.90;;;10.30;1.00;;;;;;5031695;28;20190;-79
2023/12/23 12:29:29;;;;;;;1.40;0.97;;;10.30;1.00;;;;;;5030940;28;20424;-80
2023/12/23 12:31:57;;;;;;;1.57;1.10;;;10.30;1.00;;;;;;5026064;28;20515;-79
2023/12/23 12:34:23;;;;;;;1.40;1.00;;;10.30;1.00;;;;;;5031296;28;20416;-80
2023/12/23 12:36:51;;;;;;;2.57;1.40;;;10.30;1.00;;;;;;5031650;28;20479;-80
2023/12/23 12:39:19;;;;;;;2.67;1.10;;;10.20;1.00;;;;;;5030716;28;20674;-79
2023/12/23 12:41:45;;;;;;;1.50;1.10;;;10.20;1.00;;;;;;5013667;28;20423;-79
2023/12/23 12:44:11;;;;;;;1.97;1.20;;;10.10;1.00;;;;;;5031905;28;20466;-79
2023/12/23 12:46:36;;;;;;;1.30;1.03;;;10.10;1.00;;;;;;5031110;28;20428;-78
2023/12/23 12:49:06;;;;;;;1.77;1.07;;;10.10;1.00;;;;;;5031744;28;20709;-78
2023/12/23 12:51:32;;;;;;;1.37;1.00;;;10.10;1.00;;;;;;5013552;28;20196;-80